METAR Data
IDs: Format: Raw Decoded Include TAF

Data at: 1519 UTC 21 Sep 2018

KCDI 211515Z AUTO 22014G20KT 10SM CLR 28/21 A3005 RMK AO2 T02800205
KCDI 211455Z AUTO 20010G19KT 10SM CLR 28/21 A3005 RMK AO2 T02760207
KCDI 211435Z AUTO 20011G14KT 10SM CLR 27/21 A3005 RMK AO2 T02710210
KCDI 211415Z AUTO 20009G16KT 10SM CLR 27/21 A3006 RMK AO2 T02650210
KCDI 211355Z AUTO 20009G16KT 10SM CLR 26/21 A3006 RMK AO2 T02580210
KCDI 211335Z AUTO 19009G14KT 10SM CLR 25/21 A3006 RMK AO2 T02500210
KCDI 211315Z AUTO 19008KT 10SM CLR 25/21 A3006 RMK AO2 T02450210
KCDI 211255Z AUTO 20007KT 10SM CLR 24/21 A3006 RMK AO2 T02380210
KCDI 211235Z AUTO 20004KT 10SM CLR 23/21 A3007 RMK AO2 T02310209
KCDI 211215Z AUTO 20004KT 10SM CLR 23/21 A3007 RMK AO2 T02250207
KCDI 211155Z AUTO 20005KT 10SM CLR 22/21 A3007 RMK AO2 T02200207 10220 20190
KCDI 211135Z AUTO 21003KT 10SM CLR 21/21 A3007 RMK AO2 T02100211
KCDI 211115Z AUTO 00000KT 10SM CLR 21/21 A3007 RMK AO2 T02060207
KCDI 211055Z AUTO 00000KT 10SM CLR 21/21 A3007 RMK AO2 T02050205
KCDI 211035Z AUTO 19003KT 7SM CLR 20/20 A3006 RMK AO2 T01960197
KCDI 211015Z AUTO 00000KT 3SM BR CLR 20/20 A3007 RMK AO2 T01950195
KCDI 210955Z AUTO 00000KT 2 1/2SM BR CLR 19/19 A3007 RMK AO2 T01920193
KCDI 210935Z AUTO 00000KT 4SM BR CLR 20/20 A3007 RMK AO2 T01960197
KCDI 210915Z AUTO 00000KT 2SM BR CLR 19/19 A3006 RMK AO2 T01900191
KCDI 210855Z AUTO 00000KT 3SM BR CLR 19/19 A3006 RMK AO2 T01920193
KCDI 210835Z AUTO 00000KT 1SM BR VV007 19/19 A3006 RMK AO2 T01920193
KCDI 210815Z AUTO 00000KT 5SM BR CLR 20/20 A3006 RMK AO2 T01960196
KCDI 210755Z AUTO 00000KT 1 3/4SM BR VV007 20/20 A3005 RMK AO2 T01960197
KCDI 210735Z AUTO 00000KT 7SM CLR 20/20 A3005 RMK AO2 T01970198
KCDI 210715Z AUTO 00000KT 2SM BR CLR 20/20 A3005 RMK AO2 T01970198
KCDI 210655Z AUTO 00000KT 4SM BR CLR 20/20 A3005 RMK AO2 T01970198
KCDI 210635Z AUTO 00000KT 3SM BR CLR 20/20 A3005 RMK AO2 T02000200
KCDI 210615Z AUTO 00000KT 3SM BR CLR 20/20 A3006 RMK AO2 T02020203
KCDI 210555Z AUTO 00000KT 2 1/2SM BR CLR 20/20 A3006 RMK AO2 T02020203 10241 20200
KCDI 210535Z AUTO 00000KT 2 1/2SM BR CLR 21/21 A3006 RMK AO2 VIS 1 1/4V5 T02050205
KCDI 210515Z AUTO 00000KT 5SM BR CLR 21/21 A3006 RMK AO2 T02060207
KCDI 210455Z AUTO 00000KT 7SM CLR 21/21 A3006 RMK AO2 T02050206 403090150
KCDI 210435Z AUTO 00000KT 2SM BR CLR 20/20 A3006 RMK AO2 T02010202
KCDI 210415Z AUTO 00000KT 4SM BR CLR 21/21 A3007 RMK AO2 T02060207
KCDI 210355Z AUTO 00000KT 3SM BR CLR 21/21 A3006 RMK AO2 T02080209
KCDI 210335Z AUTO 00000KT 7SM CLR 21/21 A3006 RMK AO2 T02110212
KCDI 210315Z AUTO 00000KT 2 1/2SM BR CLR 21/21 A3006 RMK AO2 T02100211
KCDI 210255Z AUTO 00000KT 4SM BR CLR 21/21 A3007 RMK AO2 T02120213
KCDI 210235Z AUTO 00000KT 7SM CLR 22/22 A3007 RMK AO2 T02150216
KCDI 210215Z AUTO 00000KT 3SM BR CLR 22/22 A3007 RMK AO2 T02160216
KCDI 210155Z AUTO 00000KT 4SM BR CLR 22/22 A3007 RMK AO2 T02200221
KCDI 210135Z AUTO 00000KT 5SM BR CLR 22/22 A3007 RMK AO2 T02210222
KCDI 210115Z AUTO 00000KT 5SM BR CLR 22/22 A3007 RMK AO2 T02220224
KCDI 210055Z AUTO 00000KT 7SM CLR 23/23 A3006 RMK AO2 T02260225
KCDI 210035Z AUTO 00000KT 10SM SCT110 23/22 A3006 RMK AO2 T02320224
KCDI 210015Z AUTO 00000KT 10SM BKN110 24/23 A3006 RMK AO2 T02360229
KCDI 202355Z AUTO 00000KT 10SM BKN120 24/23 A3006 RMK AO2 T02430229 10307 20243
KCDI 202335Z AUTO 00000KT 10SM BKN120 25/23 A3006 RMK AO2 T02450230
KCDI 202315Z AUTO 00000KT 10SM SCT120 25/23 A3006 RMK AO2 T02540227
KCDI 202255Z AUTO 00000KT 10SM SCT120 27/23 A3005 RMK AO2 T02670225
KCDI 202235Z AUTO 00000KT 10SM CLR 27/22 A3005 RMK AO2 T02720224
KCDI 202215Z AUTO 00000KT 10SM CLR 27/22 A3005 RMK AO2 T02730223
KCDI 202155Z AUTO 16004KT 10SM CLR 29/22 A3005 RMK AO2 T02860215
KCDI 202135Z AUTO 20007KT 10SM SCT046 30/21 A3005 RMK AO2 T03000210
KCDI 202115Z AUTO 19008KT 10SM SCT046 31/21 A3006 RMK AO2 T03050209
KCDI 202055Z AUTO 19006KT 10SM SCT043 31/21 A3006 RMK AO2 T03060213
KCDI 202035Z AUTO 19005KT 10SM CLR 31/21 A3006 RMK AO2 T03050209
KCDI 202015Z AUTO 21006KT 10SM CLR 31/21 A3006 RMK AO2 T03050208
KCDI 201955Z AUTO 17006KT 10SM SCT043 SCT050 31/21 A3006 RMK AO2 T03060213
KCDI 201935Z AUTO 18004KT 10SM SCT043 SCT050 SCT070 30/22 A3007 RMK AO2 T03020218
KCDI 201915Z AUTO 20003KT 10SM SCT070 SCT090 30/22 A3007 RMK AO2 T02980217
KCDI 201855Z AUTO 18004KT 10SM SCT039 SCT050 SCT065 30/22 A3008 RMK AO2 T02960215
KCDI 201835Z AUTO 17006KT 10SM SCT039 BKN055 BKN070 30/22 A3008 RMK AO2 T03010218
KCDI 201815Z AUTO 20006KT 10SM SCT039 BKN065 BKN080 31/21 A3009 RMK AO2 T03060214
KCDI 201755Z AUTO 17004KT 10SM SCT036 31/22 A3010 RMK AO2 T03070222 10309 20160
KCDI 201735Z AUTO 21005KT 10SM SCT036 30/22 A3010 RMK AO2 T03020220
KCDI 201715Z AUTO 17006KT 10SM SCT034 SCT047 30/22 A3011 RMK AO2 T03020219
KCDI 201655Z AUTO 17008KT 10SM SCT047 30/22 A3011 RMK AO2 T02960219
KCDI 201635Z AUTO 16003KT 10SM CLR 30/22 A3012 RMK AO2 T02950219
KCDI 201615Z AUTO 19006KT 10SM CLR 29/22 A3013 RMK AO2 T02910215
KCDI 201555Z AUTO 19008KT 10SM CLR 29/21 A3012 RMK AO2 T02870214
KCDI 201535Z AUTO 19005KT 10SM CLR 28/22 A3013 RMK AO2 T02800217
KCDI 201515Z AUTO 20005KT 10SM CLR 27/21 A3014 RMK AO2 T02710214
KCDI 201455Z AUTO 19006KT 10SM CLR 26/21 A3014 RMK AO2 T02630211
KCDI 201435Z AUTO 00000KT 10SM CLR 25/21 A3014 RMK AO2 T02510208
KCDI 201415Z AUTO 00000KT 10SM CLR 24/20 A3014 RMK AO2 T02360204
KCDI 201355Z AUTO 00000KT 10SM CLR 23/20 A3013 RMK AO2 T02250199
KCDI 201335Z AUTO 00000KT 10SM CLR 21/20 A3013 RMK AO2 T02140196
KCDI 201315Z AUTO 00000KT 10SM CLR 19/19 A3013 RMK AO2 T01900191
KCDI 201255Z AUTO 00000KT 10SM CLR 18/18 A3013 RMK AO2 T01810182
KCDI 201235Z AUTO 00000KT 10SM CLR 17/17 A3013 RMK AO2 T01710172
KCDI 201215Z AUTO 00000KT 10SM CLR 16/17 A3013 RMK AO2 T01630165
KCDI 201155Z AUTO 00000KT 7SM CLR 16/16 A3012 RMK AO2 T01580158 10165 20150
KCDI 201135Z AUTO 00000KT 7SM CLR 15/16 A3011 RMK AO2 T01540155
KCDI 201115Z AUTO 00000KT 5SM BR CLR 15/15 A3011 RMK AO2 T01500150
KCDI 201055Z AUTO 00000KT 5SM BR CLR 15/15 A3010 RMK AO2 T01510152
KCDI 201035Z AUTO 00000KT 7SM CLR 15/15 A3010 RMK AO2 T01530154
KCDI 201015Z AUTO 00000KT 7SM CLR 15/15 A3009 RMK AO2 T01520153
KCDI 200955Z AUTO 00000KT 7SM CLR 16/16 A3009 RMK AO2 T01560157
KCDI 200936Z AUTO 00000KT 7SM CLR 16/16 A3008 RMK AO2 T01550156
KCDI 200915Z AUTO 00000KT 1SM BR BKN003 16/16 A3009 RMK AO2 T01550156
KCDI 200855Z AUTO 00000KT 2SM BR BKN003 16/16 A3008 RMK AO2 T01570158
KCDI 200835Z AUTO 00000KT 3SM BR SCT003 16/16 A3007 RMK AO2 T01560157
KCDI 200815Z AUTO 00000KT 3SM BR CLR 16/16 A3007 RMK AO2 T01560157
KCDI 200755Z AUTO 00000KT 5SM BR SCT004 16/16 A3007 RMK AO2 T01580159
KCDI 200735Z AUTO 00000KT 1SM BR OVC003 16/16 A3007 RMK AO2 T01580159
KCDI 200715Z AUTO 00000KT 1SM BR OVC003 16/16 A3007 RMK AO2 T01580158
KCDI 200655Z AUTO 00000KT 1 3/4SM BR BKN003 16/16 A3008 RMK AO2 VIS 1/2V5 T01620163
KCDI 200636Z AUTO 00000KT 5SM BR SCT003 16/16 A3008 RMK AO2 T01630164
KCDI 200615Z AUTO 00000KT 5SM BR SCT003 16/17 A3007 RMK AO2 T01640165
KCDI 200555Z AUTO 00000KT 3/4SM BR BKN003 16/16 A3008 RMK AO2 T01620163 10215 20162
KCDI 200536Z AUTO 00000KT 3/4SM BR BKN003 17/17 A3008 RMK AO2 T01670169
KCDI 200515Z AUTO 00000KT 3/4SM BR VV005 17/17 A3008 RMK AO2 T01670168
KCDI 200455Z AUTO 00000KT 10SM SCT003 17/17 A3008 RMK AO2 T01720174 402860166
KCDI 200435Z AUTO 00000KT 3/4SM BR VV005 17/17 A3008 RMK AO2 T01710172
KCDI 200415Z AUTO 00000KT 10SM CLR 18/18 A3008 RMK AO2 T01780179
KCDI 200355Z AUTO 00000KT 1 1/4SM BR SCT002 17/18 A3008 RMK AO2 T01740175
KCDI 200335Z AUTO 00000KT 7SM CLR 18/18 A3008 RMK AO2 T01810182